createdAt,value
2018-07-10T00:02:10.845Z,2.90
2018-07-10T00:04:51.056Z,2.50
2018-07-10T00:07:37.897Z,2.43
2018-07-10T00:10:39.296Z,3.00
2018-07-10T00:13:08.429Z,2.53
2018-07-10T00:15:38.287Z,3.03
2018-07-10T00:18:07.031Z,2.83
2018-07-10T00:20:35.763Z,2.83
2018-07-10T00:23:04.518Z,2.10
2018-07-10T00:25:32.993Z,2.77
2018-07-10T00:28:01.669Z,2.67
2018-07-10T00:30:30.147Z,3.20
2018-07-10T00:32:58.781Z,2.20
2018-07-10T00:35:27.259Z,2.07
2018-07-10T00:38:07.289Z,2.53
2018-07-10T00:40:35.791Z,2.73
2018-07-10T00:43:06.290Z,1.97
2018-07-10T00:45:34.918Z,3.10
2018-07-10T00:48:03.646Z,2.83
2018-07-10T00:50:32.421Z,2.27
2018-07-10T00:53:01.213Z,2.40
2018-07-10T00:55:29.898Z,2.10
2018-07-10T00:57:59.018Z,2.10
2018-07-10T01:00:31.789Z,2.67
2018-07-10T01:03:00.894Z,3.00
2018-07-10T01:05:30.047Z,3.37
2018-07-10T01:07:59.279Z,3.30
2018-07-10T01:10:27.986Z,2.60
2018-07-10T01:12:56.704Z,2.40
2018-07-10T01:15:26.586Z,2.80
2018-07-10T01:17:55.108Z,2.40
2018-07-10T01:20:24.095Z,2.37
2018-07-10T01:22:53.430Z,2.23
2018-07-10T01:25:22.722Z,2.20
2018-07-10T01:27:51.409Z,2.00
2018-07-10T01:30:20.149Z,2.07
2018-07-10T01:32:48.652Z,2.43
2018-07-10T01:35:17.291Z,2.10
2018-07-10T01:37:46.027Z,2.47
2018-07-10T01:40:14.538Z,1.60
2018-07-10T01:42:43.205Z,1.87
2018-07-10T01:45:12.445Z,1.70
2018-07-10T01:47:41.135Z,1.80
2018-07-10T01:50:09.814Z,2.07
2018-07-10T01:52:38.531Z,2.23
2018-07-10T01:55:07.213Z,2.83
2018-07-10T01:57:35.985Z,3.33
2018-07-10T02:00:04.686Z,3.10
2018-07-10T02:02:33.432Z,3.23
2018-07-10T02:05:02.194Z,3.10
2018-07-10T02:07:31.553Z,3.17
2018-07-10T02:10:00.824Z,3.50
2018-07-10T02:12:29.490Z,3.80
2018-07-10T02:14:58.268Z,3.97
2018-07-10T02:17:26.977Z,3.33
2018-07-10T02:19:55.705Z,3.90
2018-07-10T02:22:24.569Z,4.50
2018-07-10T02:24:53.351Z,4.00
2018-07-10T02:27:22.066Z,4.70
2018-07-10T02:29:51.461Z,4.00
2018-07-10T02:32:20.116Z,4.03
2018-07-10T02:34:48.806Z,5.00
2018-07-10T02:37:17.474Z,4.50
2018-07-10T02:39:46.216Z,4.20
2018-07-10T02:42:14.727Z,4.10
2018-07-10T02:44:43.769Z,4.17
2018-07-10T02:47:12.485Z,3.57
2018-07-10T02:49:41.794Z,4.37
2018-07-10T02:52:10.264Z,3.80
2018-07-10T02:54:42.238Z,4.07
2018-07-10T02:57:11.932Z,4.37
2018-07-10T02:59:40.821Z,4.00
2018-07-10T03:02:18.643Z,3.77
2018-07-10T03:04:47.842Z,3.27
2018-07-10T03:07:18.110Z,3.90
2018-07-10T03:09:47.757Z,4.10
2018-07-10T03:12:16.475Z,3.77
2018-07-10T03:14:45.086Z,3.60
2018-07-10T03:17:16.837Z,3.70
2018-07-10T03:19:45.584Z,4.20
2018-07-10T03:22:15.514Z,3.83
2018-07-10T03:24:44.541Z,4.10
2018-07-10T03:27:13.256Z,4.07
2018-07-10T03:29:41.960Z,3.80
2018-07-10T03:32:10.747Z,4.50
2018-07-10T03:34:39.918Z,3.90
2018-07-10T03:37:08.785Z,3.97
2018-07-10T03:39:39.557Z,4.43
2018-07-10T03:42:08.113Z,4.23
2018-07-10T03:44:36.711Z,3.90
2018-07-10T03:47:05.640Z,4.13
2018-07-10T03:49:34.371Z,3.40
2018-07-10T03:52:03.603Z,3.80
2018-07-10T03:54:32.212Z,3.33
2018-07-10T03:57:02.555Z,3.13
2018-07-10T03:59:33.413Z,3.00
2018-07-10T04:02:02.159Z,2.80
2018-07-10T04:04:30.874Z,2.70
2018-07-10T04:06:59.638Z,2.47
2018-07-10T04:09:28.321Z,2.30
2018-07-10T04:11:57.063Z,2.33
2018-07-10T04:14:26.266Z,2.30
2018-07-10T04:16:54.951Z,2.50
2018-07-10T04:19:23.859Z,2.13
2018-07-10T04:21:52.331Z,2.70
2018-07-10T04:24:21.263Z,1.93
2018-07-10T04:27:00.443Z,3.03
2018-07-10T04:30:38.009Z,2.60
2018-07-10T04:33:06.721Z,2.20
2018-07-10T04:35:35.872Z,1.90
2018-07-10T04:38:04.773Z,2.27
2018-07-10T04:40:33.817Z,2.60
2018-07-10T04:43:07.038Z,2.50
2018-07-10T04:45:43.997Z,2.03
2018-07-10T04:48:17.529Z,2.20
2018-07-10T04:50:50.317Z,2.50
2018-07-10T04:53:25.508Z,2.30
2018-07-10T04:55:54.855Z,2.37
2018-07-10T04:58:23.438Z,2.10
2018-07-10T05:01:07.707Z,2.10
2018-07-10T05:03:36.373Z,2.47
2018-07-10T05:06:06.671Z,1.93
2018-07-10T05:08:36.055Z,3.10
2018-07-10T05:11:04.831Z,2.70
2018-07-10T05:13:33.582Z,2.83
2018-07-10T05:16:04.290Z,2.70
2018-07-10T05:18:33.904Z,3.27
2018-07-10T05:21:05.329Z,3.00
2018-07-10T05:23:33.754Z,2.93
2018-07-10T05:26:02.388Z,3.50
2018-07-10T05:28:32.150Z,3.40
2018-07-10T05:31:01.910Z,3.40
2018-07-10T05:33:30.665Z,3.60
2018-07-10T05:36:00.955Z,3.80
2018-07-10T05:38:35.054Z,6.27
2018-07-10T05:41:04.306Z,4.10
2018-07-10T05:43:38.148Z,3.77
2018-07-10T05:46:06.885Z,5.13
2018-07-10T05:48:36.047Z,5.17
2018-07-10T05:51:04.755Z,5.37
2018-07-10T05:53:33.605Z,5.80
2018-07-10T05:56:02.102Z,6.43
2018-07-10T05:58:30.791Z,5.57
2018-07-10T06:00:59.588Z,6.00
2018-07-10T06:03:28.302Z,4.00
2018-07-10T06:05:57.038Z,5.00
2018-07-10T06:08:25.528Z,3.90
2018-07-10T06:10:54.138Z,4.53
2018-07-10T06:13:22.831Z,4.47
2018-07-10T06:15:51.541Z,4.53
2018-07-10T06:18:20.008Z,3.57
2018-07-10T06:20:48.682Z,4.60
2018-07-10T06:23:20.134Z,4.73
2018-07-10T06:25:49.244Z,4.30
2018-07-10T06:28:25.311Z,4.23
2018-07-10T06:30:54.144Z,4.23
2018-07-10T06:33:25.578Z,4.60
2018-07-10T06:35:54.077Z,5.07
2018-07-10T06:38:22.684Z,4.90
2018-07-10T06:40:51.710Z,4.50
2018-07-10T06:43:24.357Z,4.60
2018-07-10T06:45:52.868Z,4.80
2018-07-10T06:48:22.320Z,5.00
2018-07-10T06:50:50.912Z,4.00
2018-07-10T06:53:22.255Z,4.97
2018-07-10T06:55:53.605Z,4.30
2018-07-10T06:58:24.117Z,5.00
2018-07-10T07:00:53.134Z,4.17
2018-07-10T07:03:23.735Z,3.63
2018-07-10T07:05:52.565Z,3.70
2018-07-10T07:08:23.500Z,2.97
2018-07-10T07:10:52.405Z,3.30
2018-07-10T07:13:21.103Z,3.80
2018-07-10T07:15:49.811Z,3.60
2018-07-10T07:18:18.494Z,3.10
2018-07-10T07:20:47.282Z,2.80
2018-07-10T07:23:16.038Z,3.47
2018-07-10T07:25:45.218Z,2.63
2018-07-10T07:28:14.018Z,2.90
2018-07-10T07:30:42.754Z,2.47
2018-07-10T07:33:11.506Z,2.57
2018-07-10T07:35:40.202Z,2.67
2018-07-10T07:38:08.874Z,2.70
2018-07-10T07:40:37.569Z,2.63
2018-07-10T07:43:06.334Z,2.73
2018-07-10T07:45:35.032Z,2.90
2018-07-10T07:48:03.737Z,2.43
2018-07-10T07:50:32.437Z,2.87
2018-07-10T07:53:01.178Z,2.50
2018-07-10T07:55:29.993Z,2.80
2018-07-10T07:57:58.706Z,3.30
2018-07-10T08:00:27.440Z,3.40
2018-07-10T08:02:56.155Z,2.90
2018-07-10T08:05:25.190Z,3.70
2018-07-10T08:07:54.280Z,3.90
2018-07-10T08:10:22.789Z,3.37
2018-07-10T08:12:51.466Z,3.13
2018-07-10T08:15:20.239Z,3.60
2018-07-10T08:17:49.023Z,3.40
2018-07-10T08:20:19.189Z,3.83
2018-07-10T08:22:48.156Z,4.20
2018-07-10T08:25:18.453Z,3.60
2018-07-10T08:27:46.861Z,4.03
2018-07-10T08:30:15.233Z,4.23
2018-07-10T08:32:43.896Z,4.40
2018-07-10T08:35:12.510Z,4.10
2018-07-10T08:37:41.270Z,4.30
2018-07-10T08:40:09.982Z,6.03
2018-07-10T08:42:38.460Z,5.50
2018-07-10T08:45:07.115Z,4.47
2018-07-10T08:47:35.821Z,5.20
2018-07-10T08:50:04.548Z,5.67
2018-07-10T08:52:33.272Z,4.83
2018-07-10T08:55:02.025Z,5.73
2018-07-10T08:57:30.741Z,6.03
2018-07-10T09:00:00.114Z,6.30
2018-07-10T09:02:28.768Z,5.67
2018-07-10T09:04:57.639Z,5.77
2018-07-10T09:07:26.918Z,15.50
2018-07-10T09:09:55.638Z,6.10
2018-07-10T09:12:24.318Z,6.20
2018-07-10T09:14:53.005Z,8.67
2018-07-10T09:17:22.237Z,8.17
2018-07-10T09:19:50.914Z,6.50
2018-07-10T09:22:19.384Z,6.87
2018-07-10T09:24:52.018Z,6.77
2018-07-10T09:27:21.841Z,6.50
2018-07-10T09:29:50.858Z,5.60
2018-07-10T09:32:25.148Z,6.40
2018-07-10T09:34:54.970Z,8.50
2018-07-10T09:37:29.283Z,4.77
2018-07-10T09:40:03.859Z,5.30
2018-07-10T09:42:32.324Z,8.40
2018-07-10T09:45:00.982Z,6.23
2018-07-10T09:47:30.845Z,4.83
2018-07-10T09:50:07.899Z,5.63
2018-07-10T09:52:36.833Z,6.10
2018-07-10T09:55:05.564Z,5.03
2018-07-10T09:57:34.237Z,4.90
2018-07-10T10:00:03.628Z,4.50
2018-07-10T10:02:33.476Z,4.73
2018-07-10T10:05:04.832Z,5.20
2018-07-10T10:07:33.490Z,5.00
2018-07-10T10:10:03.416Z,8.77
2018-07-10T10:12:33.533Z,6.40
2018-07-10T10:15:02.237Z,4.83
2018-07-10T10:17:31.546Z,5.30
2018-07-10T10:20:00.071Z,4.70
2018-07-10T10:22:30.946Z,6.63
2018-07-10T10:25:00.626Z,4.83
2018-07-10T10:27:30.038Z,4.57
2018-07-10T10:29:59.778Z,5.53
2018-07-10T10:32:28.586Z,5.30
2018-07-10T10:34:57.633Z,5.67
2018-07-10T10:37:26.473Z,4.37
2018-07-10T10:39:55.961Z,4.57
2018-07-10T10:42:26.129Z,4.97
2018-07-10T10:44:57.323Z,5.10
2018-07-10T10:47:26.005Z,4.40
2018-07-10T10:49:55.088Z,4.30
2018-07-10T10:52:24.903Z,5.33
2018-07-10T10:54:53.622Z,5.50
2018-07-10T10:57:23.272Z,4.77
2018-07-10T10:59:52.569Z,4.53
2018-07-10T11:02:22.050Z,5.87
2018-07-10T11:04:52.409Z,5.60
2018-07-10T11:07:21.628Z,4.93
2018-07-10T11:09:50.497Z,5.00
2018-07-10T11:12:20.258Z,6.03
2018-07-10T11:14:48.817Z,4.80
2018-07-10T11:17:21.995Z,4.43
2018-07-10T11:19:59.743Z,5.07
2018-07-10T11:22:28.473Z,4.43
2018-07-10T11:25:07.305Z,4.27
2018-07-10T11:27:47.870Z,3.73
2018-07-10T11:30:16.589Z,4.23
2018-07-10T11:32:45.050Z,3.63
2018-07-10T11:35:13.878Z,4.17
2018-07-10T11:37:42.570Z,4.60
2018-07-10T11:40:11.349Z,4.10
2018-07-10T11:42:40.142Z,2.77
2018-07-10T11:45:09.003Z,3.60
2018-07-10T11:47:37.473Z,4.40
2018-07-10T11:50:06.093Z,3.63
2018-07-10T11:52:34.830Z,3.57
2018-07-10T11:55:03.534Z,4.20
2018-07-10T11:57:32.217Z,4.30
2018-07-10T12:00:00.758Z,3.80
2018-07-10T12:02:36.952Z,4.67
2018-07-10T12:05:05.380Z,4.30
2018-07-10T12:07:35.592Z,14.87
2018-07-10T12:10:16.109Z,4.60
2018-07-10T12:12:45.006Z,4.70
2018-07-10T12:15:14.113Z,3.70
2018-07-10T12:17:42.953Z,3.67
2018-07-10T12:20:15.395Z,4.10
2018-07-10T12:22:54.683Z,3.23
2018-07-10T12:25:25.942Z,4.80
2018-07-10T12:27:54.863Z,3.80
2018-07-10T12:30:23.453Z,4.60
2018-07-10T12:32:51.947Z,3.50
2018-07-10T12:35:20.541Z,4.63
2018-07-10T12:37:54.205Z,5.13
2018-07-10T12:40:22.912Z,4.00
2018-07-10T12:42:52.417Z,5.17
2018-07-10T12:48:06.596Z,4.33
2018-07-10T12:50:35.273Z,4.80
2018-07-10T12:53:04.074Z,4.47
2018-07-10T12:55:34.582Z,4.57
2018-07-10T12:58:03.449Z,5.40
2018-07-10T13:00:32.817Z,6.10
2018-07-10T13:03:01.685Z,4.17
2018-07-10T13:06:13.352Z,4.10
2018-07-10T13:11:26.714Z,4.83
2018-07-10T13:13:55.450Z,11.53
2018-07-10T13:16:24.117Z,19.43
2018-07-10T13:18:52.897Z,5.73
2018-07-10T13:24:11.258Z,6.50
2018-07-10T13:26:39.949Z,6.03
2018-07-10T13:29:08.629Z,7.27
2018-07-10T13:31:37.377Z,8.47
2018-07-10T13:34:06.121Z,8.00
2018-07-10T13:36:34.618Z,20.13
2018-07-10T13:39:04.858Z,9.03
2018-07-10T13:41:34.837Z,8.87
2018-07-10T13:44:03.538Z,8.30
2018-07-10T13:46:32.025Z,7.63
2018-07-10T13:49:00.486Z,8.67
2018-07-10T13:51:29.573Z,8.90
2018-07-10T13:53:58.177Z,14.70
2018-07-10T13:56:26.924Z,8.00
2018-07-10T13:58:56.357Z,9.60
2018-07-10T14:01:25.048Z,11.30
2018-07-10T14:03:53.784Z,9.13
2018-07-10T14:06:22.499Z,9.90
2018-07-10T14:08:51.233Z,11.97
2018-07-10T14:11:19.945Z,8.37
2018-07-10T14:13:48.680Z,7.30
2018-07-10T14:16:17.345Z,7.70
2018-07-10T14:18:46.406Z,5.80
2018-07-10T14:21:15.199Z,6.10
2018-07-10T14:23:44.002Z,6.80
2018-07-10T14:26:12.783Z,7.03
2018-07-10T14:28:41.723Z,7.47
2018-07-10T14:31:10.429Z,7.10
2018-07-10T14:33:38.985Z,6.93
2018-07-10T14:36:07.600Z,7.23
2018-07-10T14:38:38.468Z,6.93
2018-07-10T14:41:07.885Z,7.53
2018-07-10T14:43:41.230Z,8.40
2018-07-10T14:46:15.196Z,7.57
2018-07-10T14:48:47.870Z,12.53
2018-07-10T14:51:22.223Z,10.00
2018-07-10T14:53:50.927Z,8.30
2018-07-10T14:56:19.388Z,6.93
2018-07-10T14:58:48.034Z,8.17
2018-07-10T15:01:16.913Z,8.63
2018-07-10T15:03:45.620Z,6.80
2018-07-10T15:06:14.321Z,5.53
2018-07-10T15:08:42.814Z,7.00
2018-07-10T15:11:11.461Z,6.53
2018-07-10T15:13:51.661Z,8.60
2018-07-10T15:16:20.346Z,5.67
2018-07-10T15:18:50.345Z,3.87
2018-07-10T15:21:20.293Z,4.13
2018-07-10T15:23:49.021Z,8.07
2018-07-10T15:26:18.019Z,3.47
2018-07-10T15:28:46.458Z,5.50
2018-07-10T15:31:14.830Z,3.83
2018-07-10T15:33:43.523Z,5.83
2018-07-10T15:36:12.321Z,2.80
2018-07-10T15:38:40.991Z,3.63
2018-07-10T15:41:09.378Z,3.70
2018-07-10T15:43:38.046Z,4.50
2018-07-10T15:46:06.960Z,5.27
2018-07-10T15:48:35.871Z,5.03
2018-07-10T15:51:04.228Z,5.50
2018-07-10T15:53:32.606Z,5.77
2018-07-10T15:56:01.061Z,4.70
2018-07-10T15:58:30.935Z,5.43
2018-07-10T16:00:59.646Z,6.50
2018-07-10T16:03:28.440Z,6.47
2018-07-10T16:05:57.218Z,5.70
2018-07-10T16:08:25.939Z,6.27
2018-07-10T16:10:59.484Z,5.57
2018-07-10T16:13:29.573Z,5.63
2018-07-10T16:15:58.940Z,6.23
2018-07-10T16:18:28.940Z,5.10
2018-07-10T16:21:01.504Z,5.50
2018-07-10T16:23:31.597Z,70.10
2018-07-10T16:26:07.588Z,20.17
2018-07-10T16:28:40.110Z,6.70
2018-07-10T16:31:12.168Z,5.97
2018-07-10T16:33:40.884Z,5.40
2018-07-10T16:36:09.616Z,6.03
2018-07-10T16:38:40.149Z,6.47
2018-07-10T16:41:15.947Z,6.33
2018-07-10T16:43:45.111Z,6.60
2018-07-10T16:46:15.590Z,8.33
2018-07-10T16:48:48.039Z,6.27
2018-07-10T16:51:28.396Z,6.83
2018-07-10T16:53:59.020Z,9.60
2018-07-10T16:56:27.786Z,5.60
2018-07-10T16:58:57.659Z,4.53
2018-07-10T17:01:27.617Z,6.10
2018-07-10T17:03:58.022Z,5.17
2018-07-10T17:06:27.217Z,6.33
2018-07-10T17:08:55.889Z,7.00
2018-07-10T17:11:24.645Z,9.30
2018-07-10T17:13:53.108Z,4.30
2018-07-10T17:16:28.885Z,4.60
2018-07-10T17:18:59.207Z,4.13
2018-07-10T17:21:30.104Z,3.70
2018-07-10T17:24:00.654Z,3.60
2018-07-10T17:26:29.574Z,2.23
2018-07-10T17:29:00.474Z,2.87
2018-07-10T17:31:29.304Z,2.97
2018-07-10T17:33:58.078Z,3.20
2018-07-10T17:36:26.547Z,2.90
2018-07-10T17:38:59.528Z,3.00
2018-07-10T17:41:31.919Z,2.43
2018-07-10T17:44:01.762Z,3.23
2018-07-10T17:46:31.364Z,1.97
2018-07-10T17:49:00.718Z,3.30
2018-07-10T17:51:29.501Z,3.50
2018-07-10T17:53:58.393Z,5.70
2018-07-10T17:56:27.314Z,4.73
2018-07-10T17:58:56.143Z,4.33
2018-07-10T18:01:24.774Z,3.53
2018-07-10T18:03:53.606Z,3.30
2018-07-10T18:06:22.661Z,3.10
2018-07-10T18:08:51.269Z,2.43
2018-07-10T18:11:19.982Z,2.20
2018-07-10T18:13:48.869Z,2.90
2018-07-10T18:16:17.843Z,3.30
2018-07-10T18:18:46.860Z,2.73
2018-07-10T18:21:15.831Z,8.20
2018-07-10T18:23:45.194Z,4.50
2018-07-10T18:26:14.122Z,3.50
2018-07-10T18:28:43.012Z,3.30
2018-07-10T18:31:12.579Z,5.60
2018-07-10T18:33:41.561Z,4.70
2018-07-10T18:36:11.284Z,5.43
2018-07-10T18:38:40.220Z,6.33
2018-07-10T18:41:09.004Z,6.70
2018-07-10T18:43:37.605Z,5.83
2018-07-10T18:46:06.503Z,5.20
2018-07-10T18:48:35.243Z,6.73
2018-07-10T18:51:04.468Z,6.43
2018-07-10T18:53:33.381Z,13.17
2018-07-10T18:56:02.305Z,11.30
2018-07-10T18:58:34.910Z,11.40
2018-07-10T19:01:12.294Z,13.80
2018-07-10T19:03:44.412Z,13.70
2018-07-10T19:06:14.468Z,11.90
2018-07-10T19:08:44.370Z,13.70
2018-07-10T19:11:18.380Z,10.27
2018-07-10T19:13:47.653Z,11.63
2018-07-10T19:16:19.874Z,17.00
2018-07-10T19:18:50.645Z,9.80
2018-07-10T19:21:24.490Z,9.53
2018-07-10T19:23:54.742Z,20.80
2018-07-10T19:26:24.276Z,7.90
2018-07-10T19:29:04.417Z,7.87
2018-07-10T19:31:33.335Z,7.00
2018-07-10T19:34:02.629Z,8.60
2018-07-10T19:36:31.738Z,8.77
2018-07-10T19:39:02.609Z,7.63
2018-07-10T19:41:31.465Z,9.03
2018-07-10T19:43:59.981Z,9.10
2018-07-10T19:46:30.619Z,9.07
2018-07-10T19:48:59.184Z,7.93
2018-07-10T19:51:28.489Z,8.50
2018-07-10T19:54:01.766Z,8.37
2018-07-10T19:56:30.217Z,9.23
2018-07-10T19:58:58.897Z,11.10
2018-07-10T20:02:02.841Z,10.10
2018-07-10T20:04:43.548Z,12.40
2018-07-10T20:07:25.641Z,13.03
2018-07-10T20:09:56.884Z,10.70
2018-07-10T20:12:50.143Z,10.90
2018-07-10T20:15:26.270Z,8.83
2018-07-10T20:18:09.055Z,9.47
2018-07-10T20:20:39.678Z,8.53
2018-07-10T20:23:15.985Z,8.57
2018-07-10T20:26:01.497Z,8.13
2018-07-10T20:28:48.846Z,8.93
2018-07-10T20:32:26.124Z,9.00
2018-07-10T20:35:00.963Z,8.57
2018-07-10T20:37:30.950Z,9.20
2018-07-10T20:40:00.502Z,8.83
2018-07-10T20:42:33.972Z,7.70
2018-07-10T20:45:06.117Z,8.30
2018-07-10T20:47:42.323Z,8.87
2018-07-10T20:50:11.037Z,8.53
2018-07-10T20:52:51.328Z,8.60
2018-07-10T20:55:20.094Z,8.67
2018-07-10T20:57:58.655Z,9.30
2018-07-10T21:00:29.309Z,8.50
2018-07-10T21:03:05.587Z,8.23
2018-07-10T21:05:38.574Z,8.67
2018-07-10T21:08:12.367Z,9.60
2018-07-10T21:10:45.794Z,9.30
2018-07-10T21:13:24.577Z,9.43
2018-07-10T21:16:30.918Z,10.17
2018-07-10T21:19:07.941Z,14.10
2018-07-10T21:23:04.205Z,12.67
2018-07-10T21:25:39.850Z,11.03
2018-07-10T21:28:14.073Z,12.70
2018-07-10T21:30:55.946Z,11.50
2018-07-10T21:33:38.020Z,11.23
2018-07-10T21:36:13.516Z,11.20
2018-07-10T21:39:12.564Z,10.60
2018-07-10T21:41:56.665Z,11.40
2018-07-10T21:44:35.708Z,11.07
2018-07-10T21:47:13.763Z,11.23
2018-07-10T21:49:50.297Z,11.73
2018-07-10T21:52:19.058Z,12.20
2018-07-10T21:54:48.613Z,13.30
2018-07-10T21:57:18.530Z,12.53
2018-07-10T21:59:53.728Z,13.63
2018-07-10T22:02:22.454Z,11.87
2018-07-10T22:04:55.551Z,12.50
2018-07-10T22:07:25.513Z,13.30
2018-07-10T22:09:54.502Z,13.80
2018-07-10T22:12:23.189Z,13.10
2018-07-10T22:14:52.452Z,12.50
2018-07-10T22:17:23.109Z,13.37
2018-07-10T22:19:53.679Z,11.77
2018-07-10T22:22:24.979Z,12.60
2018-07-10T22:24:54.832Z,12.17
2018-07-10T22:27:24.242Z,12.60
2018-07-10T22:30:00.977Z,13.13
2018-07-10T22:32:35.323Z,12.40
2018-07-10T22:35:04.053Z,12.80
2018-07-10T22:37:32.793Z,12.60
2018-07-10T22:40:01.555Z,12.40
2018-07-10T22:42:30.172Z,12.30
2018-07-10T22:44:59.075Z,10.90
2018-07-10T22:47:37.088Z,11.80
2018-07-10T22:50:07.772Z,12.40
2018-07-10T22:52:54.816Z,13.53
2018-07-10T22:55:27.719Z,13.63
2018-07-10T22:58:03.771Z,13.10
2018-07-10T23:00:36.870Z,13.43
2018-07-10T23:03:13.949Z,13.97
2018-07-10T23:05:42.977Z,14.37
2018-07-10T23:08:11.575Z,14.03
2018-07-10T23:10:40.310Z,13.23
2018-07-10T23:13:09.369Z,12.50
2018-07-10T23:15:38.153Z,13.30
2018-07-10T23:18:06.669Z,14.07
2018-07-10T23:20:35.050Z,12.60
2018-07-10T23:23:03.505Z,13.17
2018-07-10T23:25:32.111Z,13.63
2018-07-10T23:28:03.879Z,13.23
2018-07-10T23:30:37.687Z,13.07
2018-07-10T23:33:09.755Z,13.30
2018-07-10T23:35:39.553Z,11.83
2018-07-10T23:38:33.534Z,12.10
2018-07-10T23:41:02.497Z,11.87
2018-07-10T23:43:38.307Z,14.00
2018-07-10T23:46:11.317Z,13.97
2018-07-10T23:48:40.063Z,11.40
2018-07-10T23:51:08.890Z,11.90
2018-07-10T23:53:44.584Z,10.30
2018-07-10T23:56:13.340Z,11.33
2018-07-10T23:58:42.038Z,12.10
